Terminal Aerodrome Forecast
Issued by NWS New Orleans/Baton Rouge, LA

Home | Current Version | Previous Version | Text Only | Print | Product List | Glossary On
Versions: 1 2 3 4 5 6 7 8 9 10 11 12 13 14 15 16 17 18 19 20 21 22 23 24 25 26 27 28 29
254
FTUS44 KLIX 051139
TAFNEW
TAF
KNEW 051139Z 0512/0612 32015KT P6SM SKC
     FM051800 35009KT P6SM SKC
     FM060000 33015KT P6SM SKC
     FM060200 36016G23KT P6SM SKC
     FM061000 02012KT P6SM SKC=

USA.gov is the U.S. government's official web portal to all federal, state and local government web resources and services.